sensor_id;sensor_type;location;lat;lon;timestamp;pressure;altitude;pressure_sealevel;temperature;humidity
55604;BME280;41468;48.838;9.330;2023-11-19T00:01:44;98278.84;;;8.48;100.00
55604;BME280;41468;48.838;9.330;2023-11-19T00:04:13;98280.25;;;8.57;100.00
55604;BME280;41468;48.838;9.330;2023-11-19T00:06:40;98276.13;;;8.48;100.00
55604;BME280;41468;48.838;9.330;2023-11-19T00:09:07;98277.94;;;8.59;100.00
55604;BME280;41468;48.838;9.330;2023-11-19T00:11:34;98265.13;;;8.60;100.00
55604;BME280;41468;48.838;9.330;2023-11-19T00:14:01;98255.81;;;8.61;100.00
55604;BME280;41468;48.838;9.330;2023-11-19T00:16:39;98254.59;;;8.58;100.00
55604;BME280;41468;48.838;9.330;2023-11-19T00:19:06;98248.00;;;8.59;100.00
55604;BME280;41468;48.838;9.330;2023-11-19T00:21:32;98244.59;;;8.62;100.00
55604;BME280;41468;48.838;9.330;2023-11-19T00:23:59;98233.59;;;8.59;100.00
55604;BME280;41468;48.838;9.330;2023-11-19T00:26:26;98235.78;;;8.69;100.00
55604;BME280;41468;48.838;9.330;2023-11-19T00:28:53;98237.78;;;8.72;100.00
55604;BME280;41468;48.838;9.330;2023-11-19T00:31:20;98240.78;;;8.67;100.00
55604;BME280;41468;48.838;9.330;2023-11-19T00:33:47;98226.38;;;8.67;100.00
55604;BME280;41468;48.838;9.330;2023-11-19T00:36:15;98235.06;;;8.72;100.00
55604;BME280;41468;48.838;9.330;2023-11-19T00:38:42;98227.03;;;8.79;100.00
55604;BME280;41468;48.838;9.330;2023-11-19T00:41:09;98233.94;;;8.73;100.00
55604;BME280;41468;48.838;9.330;2023-11-19T00:43:41;98227.03;;;8.79;100.00
55604;BME280;41468;48.838;9.330;2023-11-19T00:46:08;98232.06;;;8.77;100.00
55604;BME280;41468;48.838;9.330;2023-11-19T00:48:41;98226.25;;;8.79;100.00
55604;BME280;41468;48.838;9.330;2023-11-19T00:51:07;98219.66;;;8.80;100.00
55604;BME280;41468;48.838;9.330;2023-11-19T00:53:34;98233.34;;;8.83;100.00
55604;BME280;41468;48.838;9.330;2023-11-19T00:56:01;98218.09;;;8.79;100.00
55604;BME280;41468;48.838;9.330;2023-11-19T00:58:32;98226.38;;;8.86;100.00
55604;BME280;41468;48.838;9.330;2023-11-19T01:00:59;98216.00;;;8.92;100.00
55604;BME280;41468;48.838;9.330;2023-11-19T01:03:26;98217.00;;;8.83;100.00
55604;BME280;41468;48.838;9.330;2023-11-19T01:05:53;98214.16;;;8.96;100.00
55604;BME280;41468;48.838;9.330;2023-11-19T01:08:20;98212.00;;;8.85;100.00
55604;BME280;41468;48.838;9.330;2023-11-19T01:10:47;98218.59;;;9.04;100.00
55604;BME280;41468;48.838;9.330;2023-11-19T01:13:14;98220.75;;;8.95;100.00
55604;BME280;41468;48.838;9.330;2023-11-19T01:15:46;98213.13;;;9.04;100.00
55604;BME280;41468;48.838;9.330;2023-11-19T01:18:19;98202.59;;;9.02;100.00
55604;BME280;41468;48.838;9.330;2023-11-19T01:20:51;98205.69;;;9.01;100.00
55604;BME280;41468;48.838;9.330;2023-11-19T01:23:23;98199.81;;;8.99;100.00
55604;BME280;41468;48.838;9.330;2023-11-19T01:25:55;98204.69;;;9.09;100.00
55604;BME280;41468;48.838;9.330;2023-11-19T01:28:27;98193.78;;;9.09;100.00
55604;BME280;41468;48.838;9.330;2023-11-19T01:30:59;98189.59;;;9.15;100.00
55604;BME280;41468;48.838;9.330;2023-11-19T01:33:31;98190.78;;;9.14;100.00
55604;BME280;41468;48.838;9.330;2023-11-19T01:36:13;98184.59;;;9.17;100.00
55604;BME280;41468;48.838;9.330;2023-11-19T01:38:52;98185.53;;;9.25;100.00
55604;BME280;41468;48.838;9.330;2023-11-19T01:41:34;98182.06;;;9.28;100.00
55604;BME280;41468;48.838;9.330;2023-11-19T01:44:02;98185.13;;;9.26;100.00
55604;BME280;41468;48.838;9.330;2023-11-19T01:46:30;98174.63;;;9.25;100.00
55604;BME280;41468;48.838;9.330;2023-11-19T01:49:00;98183.63;;;9.29;100.00
55604;BME280;41468;48.838;9.330;2023-11-19T01:51:27;98183.16;;;9.23;100.00
55604;BME280;41468;48.838;9.330;2023-11-19T01:54:00;98182.56;;;9.34;100.00
55604;BME280;41468;48.838;9.330;2023-11-19T01:56:28;98182.13;;;9.32;100.00
55604;BME280;41468;48.838;9.330;2023-11-19T01:58:57;98186.19;;;9.41;100.00
55604;BME280;41468;48.838;9.330;2023-11-19T02:01:29;98185.72;;;9.36;100.00
55604;BME280;41468;48.838;9.330;2023-11-19T02:04:01;98186.50;;;9.36;100.00
55604;BME280;41468;48.838;9.330;2023-11-19T02:06:34;98186.97;;;9.42;100.00
55604;BME280;41468;48.838;9.330;2023-11-19T02:09:01;98184.69;;;9.44;100.00
55604;BME280;41468;48.838;9.330;2023-11-19T02:11:28;98181.00;;;9.33;100.00
55604;BME280;41468;48.838;9.330;2023-11-19T02:13:56;98184.69;;;9.44;100.00
55604;BME280;41468;48.838;9.330;2023-11-19T02:16:23;98172.88;;;9.36;100.00
55604;BME280;41468;48.838;9.330;2023-11-19T02:18:50;98177.34;;;9.25;100.00
55604;BME280;41468;48.838;9.330;2023-11-19T02:21:17;98172.38;;;9.31;100.00
55604;BME280;41468;48.838;9.330;2023-11-19T02:23:44;98168.94;;;9.34;100.00
55604;BME280;41468;48.838;9.330;2023-11-19T02:29:07;98160.63;;;9.26;100.00
55604;BME280;41468;48.838;9.330;2023-11-19T02:31:34;98153.84;;;9.40;100.00
55604;BME280;41468;48.838;9.330;2023-11-19T02:34:01;98151.06;;;9.36;100.00
55604;BME280;41468;48.838;9.330;2023-11-19T02:36:29;98150.78;;;9.41;100.00
55604;BME280;41468;48.838;9.330;2023-11-19T02:38:55;98163.91;;;9.36;100.00
55604;BME280;41468;48.838;9.330;2023-11-19T02:41:22;98165.56;;;9.40;100.00
55604;BME280;41468;48.838;9.330;2023-11-19T02:43:49;98164.75;;;9.40;100.00
55604;BME280;41468;48.838;9.330;2023-11-19T02:46:16;98166.63;;;9.36;100.00
55604;BME280;41468;48.838;9.330;2023-11-19T02:48:44;98170.63;;;9.42;100.00
55604;BME280;41468;48.838;9.330;2023-11-19T02:51:12;98166.25;;;9.37;100.00
55604;BME280;41468;48.838;9.330;2023-11-19T02:53:39;98173.31;;;9.38;100.00
55604;BME280;41468;48.838;9.330;2023-11-19T02:56:07;98171.00;;;9.40;100.00
55604;BME280;41468;48.838;9.330;2023-11-19T02:58:52;98169.66;;;9.54;100.00
55604;BME280;41468;48.838;9.330;2023-11-19T03:01:23;98163.38;;;9.49;100.00
55604;BME280;41468;48.838;9.330;2023-11-19T03:03:57;98165.09;;;9.61;100.00
55604;BME280;41468;48.838;9.330;2023-11-19T03:19:46;98169.91;;;9.68;100.00
55604;BME280;41468;48.838;9.330;2023-11-19T03:22:15;98171.47;;;9.69;100.00
55604;BME280;41468;48.838;9.330;2023-11-19T03:24:41;98169.66;;;9.77;100.00
55604;BME280;41468;48.838;9.330;2023-11-19T03:27:08;98170.00;;;9.75;100.00
55604;BME280;41468;48.838;9.330;2023-11-19T03:29:35;98166.13;;;9.76;100.00
55604;BME280;41468;48.838;9.330;2023-11-19T03:32:02;98169.22;;;9.74;100.00
55604;BME280;41468;48.838;9.330;2023-11-19T03:34:28;98172.56;;;9.64;100.00
55604;BME280;41468;48.838;9.330;2023-11-19T03:36:55;98162.94;;;9.70;100.00
55604;BME280;41468;48.838;9.330;2023-11-19T03:39:23;98161.78;;;9.71;100.00
55604;BME280;41468;48.838;9.330;2023-11-19T03:41:51;98149.59;;;9.65;100.00
55604;BME280;41468;48.838;9.330;2023-11-19T03:44:18;98152.22;;;9.58;100.00
55604;BME280;41468;48.838;9.330;2023-11-19T03:46:46;98148.41;;;9.63;100.00
55604;BME280;41468;48.838;9.330;2023-11-19T03:49:13;98151.84;;;9.60;100.00
55604;BME280;41468;48.838;9.330;2023-11-19T03:51:40;98141.72;;;9.60;100.00
55604;BME280;41468;48.838;9.330;2023-11-19T03:54:07;98145.63;;;9.59;100.00
55604;BME280;41468;48.838;9.330;2023-11-19T03:56:34;98141.31;;;9.58;100.00
55604;BME280;41468;48.838;9.330;2023-11-19T03:59:01;98138.22;;;9.60;100.00
55604;BME280;41468;48.838;9.330;2023-11-19T04:01:32;98130.06;;;9.60;100.00
55604;BME280;41468;48.838;9.330;2023-11-19T04:03:59;98126.91;;;9.58;100.00
55604;BME280;41468;48.838;9.330;2023-11-19T04:06:26;98115.22;;;9.57;100.00
55604;BME280;41468;48.838;9.330;2023-11-19T04:08:53;98123.09;;;9.62;100.00
55604;BME280;41468;48.838;9.330;2023-11-19T04:11:19;98125.44;;;9.64;100.00
55604;BME280;41468;48.838;9.330;2023-11-19T04:13:46;98125.56;;;9.71;100.00
55604;BME280;41468;48.838;9.330;2023-11-19T04:16:13;98125.50;;;9.67;100.00
55604;BME280;41468;48.838;9.330;2023-11-19T04:18:41;98131.03;;;9.74;100.00
55604;BME280;41468;48.838;9.330;2023-11-19T04:21:08;98130.25;;;9.74;100.00
55604;BME280;41468;48.838;9.330;2023-11-19T04:23:34;98134.50;;;9.71;100.00
55604;BME280;41468;48.838;9.330;2023-11-19T04:26:02;98125.59;;;9.74;100.00
55604;BME280;41468;48.838;9.330;2023-11-19T04:28:42;98130.31;;;9.78;100.00
55604;BME280;41468;48.838;9.330;2023-11-19T04:31:08;98122.88;;;9.74;100.00
55604;BME280;41468;48.838;9.330;2023-11-19T04:33:36;98131.28;;;9.89;100.00
55604;BME280;41468;48.838;9.330;2023-11-19T04:36:03;98122.78;;;9.94;100.00
55604;BME280;41468;48.838;9.330;2023-11-19T04:38:30;98127.50;;;9.97;100.00
55604;BME280;41468;48.838;9.330;2023-11-19T04:40:57;98112.69;;;9.98;100.00
55604;BME280;41468;48.838;9.330;2023-11-19T04:43:24;98115.44;;;9.98;100.00
55604;BME280;41468;48.838;9.330;2023-11-19T04:45:51;98126.22;;;9.91;100.00
55604;BME280;41468;48.838;9.330;2023-11-19T04:48:31;98122.44;;;9.99;100.00
55604;BME280;41468;48.838;9.330;2023-11-19T04:51:07;98123.59;;;9.98;100.00
55604;BME280;41468;48.838;9.330;2023-11-19T04:53:36;98125.16;;;9.99;100.00
55604;BME280;41468;48.838;9.330;2023-11-19T04:56:09;98120.69;;;10.10;100.00
55604;BME280;41468;48.838;9.330;2023-11-19T04:58:36;98135.47;;;10.09;100.00
55604;BME280;41468;48.838;9.330;2023-11-19T05:01:04;98130.78;;;10.10;100.00
55604;BME280;41468;48.838;9.330;2023-11-19T05:03:31;98132.78;;;10.13;100.00
55604;BME280;41468;48.838;9.330;2023-11-19T05:05:58;98128.59;;;10.19;100.00
55604;BME280;41468;48.838;9.330;2023-11-19T05:08:25;98123.16;;;10.23;100.00
55604;BME280;41468;48.838;9.330;2023-11-19T05:10:52;98119.78;;;10.29;100.00
55604;BME280;41468;48.838;9.330;2023-11-19T05:13:19;98124.13;;;10.34;100.00
55604;BME280;41468;48.838;9.330;2023-11-19T05:15:46;98125.00;;;10.42;100.00
55604;BME280;41468;48.838;9.330;2023-11-19T05:18:13;98122.28;;;10.42;100.00
55604;BME280;41468;48.838;9.330;2023-11-19T05:20:40;98123.47;;;10.44;100.00
55604;BME280;41468;48.838;9.330;2023-11-19T05:23:06;98138.31;;;10.47;100.00
55604;BME280;41468;48.838;9.330;2023-11-19T05:25:46;98126.31;;;10.51;100.00
55604;BME280;41468;48.838;9.330;2023-11-19T05:28:18;98129.84;;;10.55;100.00
55604;BME280;41468;48.838;9.330;2023-11-19T05:30:45;98133.38;;;10.56;100.00
55604;BME280;41468;48.838;9.330;2023-11-19T05:33:12;98128.28;;;10.54;100.00
55604;BME280;41468;48.838;9.330;2023-11-19T05:35:39;98136.16;;;10.59;100.00
55604;BME280;41468;48.838;9.330;2023-11-19T05:38:06;98140.06;;;10.62;100.00
55604;BME280;41468;48.838;9.330;2023-11-19T05:40:32;98136.19;;;10.63;100.00
55604;BME280;41468;48.838;9.330;2023-11-19T05:42:59;98143.25;;;10.68;100.00
55604;BME280;41468;48.838;9.330;2023-11-19T05:45:26;98138.59;;;10.68;100.00
55604;BME280;41468;48.838;9.330;2023-11-19T05:47:53;98137.06;;;10.71;100.00
55604;BME280;41468;48.838;9.330;2023-11-19T05:50:20;98123.41;;;10.71;100.00
55604;BME280;41468;48.838;9.330;2023-11-19T05:52:47;98135.88;;;10.72;100.00
55604;BME280;41468;48.838;9.330;2023-11-19T05:55:13;98133.56;;;10.74;100.00
55604;BME280;41468;48.838;9.330;2023-11-19T05:57:40;98125.81;;;10.76;100.00
55604;BME280;41468;48.838;9.330;2023-11-19T06:00:10;98120.00;;;10.81;100.00
55604;BME280;41468;48.838;9.330;2023-11-19T06:02:39;98131.69;;;10.78;100.00
55604;BME280;41468;48.838;9.330;2023-11-19T06:05:06;98127.03;;;10.82;100.00
55604;BME280;41468;48.838;9.330;2023-11-19T06:07:33;98113.38;;;10.82;100.00
55604;BME280;41468;48.838;9.330;2023-11-19T06:10:02;98113.13;;;10.94;100.00
55604;BME280;41468;48.838;9.330;2023-11-19T06:12:33;98117.41;;;10.95;100.00
55604;BME280;41468;48.838;9.330;2023-11-19T06:15:07;98133.03;;;10.95;100.00
55604;BME280;41468;48.838;9.330;2023-11-19T06:17:35;98132.63;;;10.93;100.00
55604;BME280;41468;48.838;9.330;2023-11-19T06:20:04;98134.97;;;10.94;100.00
55604;BME280;41468;48.838;9.330;2023-11-19T06:22:31;98137.63;;;10.87;100.00
55604;BME280;41468;48.838;9.330;2023-11-19T06:24:58;98138.47;;;10.91;100.00
55604;BME280;41468;48.838;9.330;2023-11-19T06:27:25;98139.25;;;10.92;100.00
55604;BME280;41468;48.838;9.330;2023-11-19T06:29:52;98141.97;;;10.92;100.00
55604;BME280;41468;48.838;9.330;2023-11-19T06:32:18;98143.50;;;10.89;100.00
55604;BME280;41468;48.838;9.330;2023-11-19T06:34:45;98136.53;;;10.95;100.00
55604;BME280;41468;48.838;9.330;2023-11-19T06:37:12;98144.38;;;10.97;100.00
55604;BME280;41468;48.838;9.330;2023-11-19T06:39:39;98137.78;;;11.01;100.00
55604;BME280;41468;48.838;9.330;2023-11-19T06:42:07;98132.31;;;11.01;100.00
55604;BME280;41468;48.838;9.330;2023-11-19T06:44:33;98134.31;;;11.04;100.00
55604;BME280;41468;48.838;9.330;2023-11-19T06:47:00;98143.66;;;11.03;100.00
55604;BME280;41468;48.838;9.330;2023-11-19T06:49:39;98139.78;;;11.04;100.00
55604;BME280;41468;48.838;9.330;2023-11-19T06:52:06;98145.28;;;11.08;100.00
55604;BME280;41468;48.838;9.330;2023-11-19T06:54:32;98152.25;;;11.05;100.00
55604;BME280;41468;48.838;9.330;2023-11-19T06:56:59;98143.72;;;11.07;100.00
55604;BME280;41468;48.838;9.330;2023-11-19T06:59:26;98157.81;;;11.13;100.00
55604;BME280;41468;48.838;9.330;2023-11-19T07:01:53;98161.69;;;11.12;100.00
55604;BME280;41468;48.838;9.330;2023-11-19T07:04:26;98153.16;;;11.17;100.00
55604;BME280;41468;48.838;9.330;2023-11-19T07:06:53;98151.22;;;11.17;100.00
55604;BME280;41468;48.838;9.330;2023-11-19T07:09:20;98149.66;;;11.16;100.00
55604;BME280;41468;48.838;9.330;2023-11-19T07:11:47;98146.91;;;11.16;100.00
55604;BME280;41468;48.838;9.330;2023-11-19T07:14:14;98153.22;;;11.20;100.00
55604;BME280;41468;48.838;9.330;2023-11-19T07:16:41;98155.97;;;11.24;100.00
55604;BME280;41468;48.838;9.330;2023-11-19T07:19:08;98150.53;;;11.27;100.00
55604;BME280;41468;48.838;9.330;2023-11-19T07:21:35;98150.13;;;11.25;100.00
55604;BME280;41468;48.838;9.330;2023-11-19T07:24:06;98158.72;;;11.27;100.00
55604;BME280;41468;48.838;9.330;2023-11-19T07:26:33;98159.50;;;11.28;100.00
55604;BME280;41468;48.838;9.330;2023-11-19T07:29:00;98168.47;;;11.25;100.00
55604;BME280;41468;48.838;9.330;2023-11-19T07:31:28;98175.84;;;11.21;100.00
55604;BME280;41468;48.838;9.330;2023-11-19T07:33:55;98173.50;;;11.23;100.00
55604;BME280;41468;48.838;9.330;2023-11-19T07:36:22;98173.16;;;11.24;100.00
55604;BME280;41468;48.838;9.330;2023-11-19T07:38:48;98172.38;;;11.24;100.00
55604;BME280;41468;48.838;9.330;2023-11-19T07:41:15;98182.13;;;11.25;100.00
55604;BME280;41468;48.838;9.330;2023-11-19T07:43:45;98185.28;;;11.27;100.00
55604;BME280;41468;48.838;9.330;2023-11-19T07:46:13;98190.41;;;11.32;100.00
55604;BME280;41468;48.838;9.330;2023-11-19T07:48:40;98188.88;;;11.35;100.00
55604;BME280;41468;48.838;9.330;2023-11-19T07:51:10;98195.50;;;11.34;100.00
55604;BME280;41468;48.838;9.330;2023-11-19T07:53:38;98185.38;;;11.38;100.00
55604;BME280;41468;48.838;9.330;2023-11-19T07:56:05;98182.31;;;11.43;100.00
55604;BME280;41468;48.838;9.330;2023-11-19T07:58:32;98187.78;;;11.43;100.00
55604;BME280;41468;48.838;9.330;2023-11-19T08:01:00;98189.75;;;11.46;100.00
55604;BME280;41468;48.838;9.330;2023-11-19T08:03:28;98182.34;;;11.46;100.00
55604;BME280;41468;48.838;9.330;2023-11-19T08:05:56;98188.16;;;11.41;100.00
55604;BME280;41468;48.838;9.330;2023-11-19T08:08:25;98189.34;;;11.44;100.00
55604;BME280;41468;48.838;9.330;2023-11-19T08:10:53;98195.66;;;11.48;100.00
55604;BME280;41468;48.838;9.330;2023-11-19T08:13:20;98189.41;;;11.47;100.00
55604;BME280;41468;48.838;9.330;2023-11-19T08:15:47;98192.56;;;11.53;100.00
55604;BME280;41468;48.838;9.330;2023-11-19T08:18:14;98179.34;;;11.59;100.00
55604;BME280;41468;48.838;9.330;2023-11-19T08:20:40;98179.38;;;11.62;100.00
55604;BME280;41468;48.838;9.330;2023-11-19T08:23:09;98178.25;;;11.70;100.00
55604;BME280;41468;48.838;9.330;2023-11-19T08:25:36;98174.81;;;11.81;100.00
55604;BME280;41468;48.838;9.330;2023-11-19T08:28:03;98172.56;;;11.86;100.00
55604;BME280;41468;48.838;9.330;2023-11-19T08:30:34;98162.03;;;11.88;100.00
55604;BME280;41468;48.838;9.330;2023-11-19T08:33:01;98171.16;;;12.07;100.00
55604;BME280;41468;48.838;9.330;2023-11-19T08:35:29;98171.25;;;12.25;100.00
55604;BME280;41468;48.838;9.330;2023-11-19T08:37:56;98169.69;;;12.27;100.00
55604;BME280;41468;48.838;9.330;2023-11-19T08:40:23;98176.34;;;12.26;100.00
55604;BME280;41468;48.838;9.330;2023-11-19T08:42:55;98178.69;;;12.24;100.00
55604;BME280;41468;48.838;9.330;2023-11-19T08:45:22;98178.25;;;12.22;100.00
55604;BME280;41468;48.838;9.330;2023-11-19T08:47:49;98186.84;;;12.17;100.00
55604;BME280;41468;48.838;9.330;2023-11-19T08:50:16;98181.75;;;12.15;100.00
55604;BME280;41468;48.838;9.330;2023-11-19T08:52:43;98173.97;;;12.18;100.00
55604;BME280;41468;48.838;9.330;2023-11-19T08:55:09;98181.78;;;12.19;100.00
55604;BME280;41468;48.838;9.330;2023-11-19T08:57:49;98179.09;;;12.26;100.00
55604;BME280;41468;48.838;9.330;2023-11-19T09:00:16;98186.88;;;12.21;100.00
55604;BME280;41468;48.838;9.330;2023-11-19T09:02:44;98190.03;;;12.26;100.00
55604;BME280;41468;48.838;9.330;2023-11-19T09:05:11;98191.56;;;12.20;100.00
55604;BME280;41468;48.838;9.330;2023-11-19T09:07:39;98190.81;;;12.23;100.00
55604;BME280;41468;48.838;9.330;2023-11-19T09:10:06;98204.94;;;12.32;100.00
55604;BME280;41468;48.838;9.330;2023-11-19T09:12:35;98192.84;;;12.33;100.00
55604;BME280;41468;48.838;9.330;2023-11-19T09:15:02;98187.84;;;12.57;100.00
55604;BME280;41468;48.838;9.330;2023-11-19T09:17:29;98189.50;;;12.72;100.00
55604;BME280;41468;48.838;9.330;2023-11-19T09:20:02;98202.50;;;12.90;100.00
55604;BME280;41468;48.838;9.330;2023-11-19T09:22:28;98205.19;;;12.79;100.00
55604;BME280;41468;48.838;9.330;2023-11-19T09:24:55;98208.34;;;12.85;100.00
55604;BME280;41468;48.838;9.330;2023-11-19T09:27:22;98205.56;;;12.77;100.00
55604;BME280;41468;48.838;9.330;2023-11-19T09:29:49;98208.28;;;12.70;100.00
55604;BME280;41468;48.838;9.330;2023-11-19T09:32:22;98209.03;;;12.67;100.00
55604;BME280;41468;48.838;9.330;2023-11-19T09:34:49;98212.16;;;12.62;100.00
55604;BME280;41468;48.838;9.330;2023-11-19T09:37:16;98204.69;;;12.63;100.00
55604;BME280;41468;48.838;9.330;2023-11-19T09:39:46;98213.69;;;12.59;100.00
55604;BME280;41468;48.838;9.330;2023-11-19T09:42:12;98205.88;;;12.58;100.00
55604;BME280;41468;48.838;9.330;2023-11-19T09:44:41;98203.13;;;12.58;100.00
55604;BME280;41468;48.838;9.330;2023-11-19T09:47:11;98216.44;;;12.59;100.00
55604;BME280;41468;48.838;9.330;2023-11-19T09:49:38;98222.31;;;12.58;100.00
55604;BME280;41468;48.838;9.330;2023-11-19T09:52:06;98222.72;;;12.64;100.00
55604;BME280;41468;48.838;9.330;2023-11-19T09:54:33;98221.59;;;12.75;100.00
55604;BME280;41468;48.838;9.330;2023-11-19T09:57:01;98210.31;;;12.88;100.00
55604;BME280;41468;48.838;9.330;2023-11-19T09:59:31;98212.28;;;12.91;100.00
55604;BME280;41468;48.838;9.330;2023-11-19T10:01:58;98216.63;;;12.99;100.00
55604;BME280;41468;48.838;9.330;2023-11-19T10:04:29;98212.31;;;13.01;100.00
55604;BME280;41468;48.838;9.330;2023-11-19T10:06:57;98210.38;;;13.02;100.00
55604;BME280;41468;48.838;9.330;2023-11-19T10:09:24;98215.09;;;13.12;100.00
55604;BME280;41468;48.838;9.330;2023-11-19T10:11:50;98207.66;;;13.09;100.00
55604;BME280;41468;48.838;9.330;2023-11-19T10:14:22;98202.94;;;13.10;100.00
55604;BME280;41468;48.838;9.330;2023-11-19T10:16:49;98201.41;;;13.16;100.00
55604;BME280;41468;48.838;9.330;2023-11-19T10:19:19;98195.56;;;13.24;100.00
55604;BME280;41468;48.838;9.330;2023-11-19T10:21:49;98191.69;;;13.33;100.00
55604;BME280;41468;48.838;9.330;2023-11-19T10:24:16;98199.91;;;13.40;100.00
55604;BME280;41468;48.838;9.330;2023-11-19T10:26:57;98189.38;;;13.49;100.00
55604;BME280;41468;48.838;9.330;2023-11-19T10:29:24;98189.75;;;13.62;100.00
55604;BME280;41468;48.838;9.330;2023-11-19T10:31:57;98184.28;;;13.73;100.00
55604;BME280;41468;48.838;9.330;2023-11-19T10:34:44;98180.00;;;13.79;100.00
55604;BME280;41468;48.838;9.330;2023-11-19T10:37:28;98190.59;;;13.84;100.00
55604;BME280;41468;48.838;9.330;2023-11-19T10:39:59;98179.59;;;13.80;100.00
55604;BME280;41468;48.838;9.330;2023-11-19T10:42:26;98190.56;;;13.77;100.00
55604;BME280;41468;48.838;9.330;2023-11-19T10:44:53;98183.13;;;13.74;100.00
55604;BME280;41468;48.838;9.330;2023-11-19T10:47:22;98190.94;;;13.75;100.00
55604;BME280;41468;48.838;9.330;2023-11-19T10:49:52;98188.22;;;13.72;100.00
55604;BME280;41468;48.838;9.330;2023-11-19T10:52:30;98189.00;;;13.76;100.00
55604;BME280;41468;48.838;9.330;2023-11-19T10:55:00;98189.00;;;13.76;100.00
55604;BME280;41468;48.838;9.330;2023-11-19T10:57:30;98190.56;;;13.77;100.00
55604;BME280;41468;48.838;9.330;2023-11-19T11:00:01;98188.22;;;13.79;100.00
55604;BME280;41468;48.838;9.330;2023-11-19T11:02:30;98178.81;;;13.80;100.00
55604;BME280;41468;48.838;9.330;2023-11-19T11:05:02;98196.06;;;13.77;100.00
55604;BME280;41468;48.838;9.330;2023-11-19T11:07:30;98174.88;;;13.74;100.00
55604;BME280;41468;48.838;9.330;2023-11-19T11:10:07;98175.28;;;13.72;100.00
55604;BME280;41468;48.838;9.330;2023-11-19T11:12:40;98176.84;;;13.77;100.00
55604;BME280;41468;48.838;9.330;2023-11-19T11:15:11;98172.53;;;13.83;100.00
55604;BME280;41468;48.838;9.330;2023-11-19T11:17:39;98169.00;;;13.82;100.00
55604;BME280;41468;48.838;9.330;2023-11-19T11:20:08;98164.31;;;13.79;100.00
55604;BME280;41468;48.838;9.330;2023-11-19T11:22:49;98155.66;;;13.77;100.00
55604;BME280;41468;48.838;9.330;2023-11-19T11:25:34;98160.75;;;13.75;100.00
55604;BME280;41468;48.838;9.330;2023-11-19T11:28:06;98167.84;;;13.76;100.00
55604;BME280;41468;48.838;9.330;2023-11-19T11:30:46;98163.91;;;13.70;100.00
55604;BME280;41468;48.838;9.330;2023-11-19T11:36:11;98163.13;;;13.73;100.00
55604;BME280;41468;48.838;9.330;2023-11-19T11:38:40;98161.56;;;13.65;98.88
55604;BME280;41468;48.838;9.330;2023-11-19T11:41:24;98158.41;;;13.59;96.62
55604;BME280;41468;48.838;9.330;2023-11-19T11:43:56;98161.56;;;13.58;98.26
55604;BME280;41468;48.838;9.330;2023-11-19T11:49:06;98172.13;;;13.59;99.25
55604;BME280;41468;48.838;9.330;2023-11-19T11:52:00;98170.56;;;13.90;95.32
55604;BME280;41468;48.838;9.330;2023-11-19T11:54:28;98157.59;;;14.20;95.99
55604;BME280;41468;48.838;9.330;2023-11-19T11:57:03;98156.81;;;14.23;91.35
55604;BME280;41468;48.838;9.330;2023-11-19T12:02:10;98146.63;;;14.20;90.50
55604;BME280;41468;48.838;9.330;2023-11-19T12:04:39;98142.72;;;14.13;91.56
55604;BME280;41468;48.838;9.330;2023-11-19T12:07:08;98139.19;;;14.02;92.48
55604;BME280;41468;48.838;9.330;2023-11-19T12:09:42;98147.44;;;13.99;92.47
55604;BME280;41468;48.838;9.330;2023-11-19T12:12:17;98143.09;;;14.01;91.57
55604;BME280;41468;48.838;9.330;2023-11-19T12:15:04;98135.63;;;14.23;91.13
55604;BME280;41468;48.838;9.330;2023-11-19T12:20:03;98121.53;;;14.21;93.03
55604;BME280;41468;48.838;9.330;2023-11-19T12:22:32;98123.06;;;14.15;95.43
55604;BME280;41468;48.838;9.330;2023-11-19T12:24:59;98112.50;;;14.17;90.97
55604;BME280;41468;48.838;9.330;2023-11-19T12:27:26;98112.09;;;14.22;95.99
55604;BME280;41468;48.838;9.330;2023-11-19T12:29:52;98108.19;;;14.12;95.04
55604;BME280;41468;48.838;9.330;2023-11-19T12:32:19;98100.72;;;14.17;96.32
55604;BME280;41468;48.838;9.330;2023-11-19T12:34:46;98101.09;;;14.22;93.41
55604;BME280;41468;48.838;9.330;2023-11-19T12:37:13;98105.75;;;14.36;93.35
55604;BME280;41468;48.838;9.330;2023-11-19T12:39:40;98099.47;;;14.43;95.08
55604;BME280;41468;48.838;9.330;2023-11-19T12:42:07;98101.00;;;14.47;92.63
55604;BME280;41468;48.838;9.330;2023-11-19T12:44:33;98092.31;;;14.70;92.52
55604;BME280;41468;48.838;9.330;2023-11-19T12:47:05;98078.09;;;14.86;90.15
55604;BME280;41468;48.838;9.330;2023-11-19T12:49:33;98075.56;;;15.10;89.53
55604;BME280;41468;48.838;9.330;2023-11-19T12:52:00;98066.31;;;15.41;84.20
55604;BME280;41468;48.838;9.330;2023-11-19T12:54:35;98067.88;;;15.42;82.47
55604;BME280;41468;48.838;9.330;2023-11-19T12:57:04;98072.31;;;15.29;81.77
55604;BME280;41468;48.838;9.330;2023-11-19T12:59:31;98065.19;;;15.35;78.18
55604;BME280;41468;48.838;9.330;2023-11-19T13:01:59;98079.66;;;15.43;76.96
55604;BME280;41468;48.838;9.330;2023-11-19T13:04:29;98086.19;;;15.60;78.20
55604;BME280;41468;48.838;9.330;2023-11-19T13:07:00;98078.38;;;15.55;77.83
55604;BME280;41468;48.838;9.330;2023-11-19T13:09:29;98079.25;;;15.44;78.16
55604;BME280;41468;48.838;9.330;2023-11-19T13:11:56;98070.72;;;15.28;77.37
55604;BME280;41468;48.838;9.330;2023-11-19T13:14:23;98078.63;;;15.22;78.15
55604;BME280;41468;48.838;9.330;2023-11-19T13:16:57;98073.47;;;15.28;72.99
55604;BME280;41468;48.838;9.330;2023-11-19T13:19:24;98085.72;;;15.23;74.86
55604;BME280;41468;48.838;9.330;2023-11-19T13:21:51;98075.56;;;15.10;75.75
55604;BME280;41468;48.838;9.330;2023-11-19T13:24:18;98074.09;;;14.98;75.45
55604;BME280;41468;48.838;9.330;2023-11-19T13:26:44;98080.41;;;14.95;77.15
55604;BME280;41468;48.838;9.330;2023-11-19T13:29:12;98077.69;;;14.91;73.27
55604;BME280;41468;48.838;9.330;2023-11-19T13:31:38;98072.56;;;14.90;76.14